Roca, Nebraska
Current Conditions -  °F | °C
As of 4:54 PM on Saturday 25 Oct 2014 (Local Time) from KLNK Reporting Station
Clear Clear  
Wind Chill: 74°   Ceiling: Unl
Heat Index: 74°   Visibility: 10mi
Dew Point: 47°   Wind: 7mph
Humidity: 38%   Direction: 60°ENE
Pressure: 30.05"   Gusts: NA
Location:  40.66°N, 96.66°W
Report Text: KLNK 252154Z 06006KT 10SM CLR 23/08 A3005 RMK AO2 SLP172 T02330083 $
Loading
Personal Weather Stations






























Interactive Weather Map
Tropical Storm Tracking
New forecast layout! Learn more

10-Day Weather Forecast

Advertisements
Track Severe Weather on mobile